sensor_id;sensor_type;location;lat;lon;timestamp;temperature;humidity
19665;DHT22;9980;51.020;7.772;2022-10-16T00:01:40;16.20;99.90
19665;DHT22;9980;51.020;7.772;2022-10-16T00:04:08;16.20;99.90
19665;DHT22;9980;51.020;7.772;2022-10-16T00:06:35;16.20;99.90
19665;DHT22;9980;51.020;7.772;2022-10-16T00:09:02;16.20;99.90
19665;DHT22;9980;51.020;7.772;2022-10-16T00:11:31;16.20;99.90
19665;DHT22;9980;51.020;7.772;2022-10-16T00:14:01;16.20;99.90
19665;DHT22;9980;51.020;7.772;2022-10-16T00:16:30;16.20;99.90
19665;DHT22;9980;51.020;7.772;2022-10-16T00:18:57;16.20;99.90
19665;DHT22;9980;51.020;7.772;2022-10-16T00:21:27;16.20;99.90
19665;DHT22;9980;51.020;7.772;2022-10-16T00:24:01;16.20;99.90
19665;DHT22;9980;51.020;7.772;2022-10-16T00:26:32;16.20;99.90
19665;DHT22;9980;51.020;7.772;2022-10-16T00:29:01;16.20;99.90
19665;DHT22;9980;51.020;7.772;2022-10-16T00:31:28;16.20;99.90
19665;DHT22;9980;51.020;7.772;2022-10-16T00:33:56;16.20;99.90
19665;DHT22;9980;51.020;7.772;2022-10-16T00:36:24;16.20;99.90
19665;DHT22;9980;51.020;7.772;2022-10-16T00:38:57;16.20;99.90
19665;DHT22;9980;51.020;7.772;2022-10-16T00:41:32;16.20;99.90
19665;DHT22;9980;51.020;7.772;2022-10-16T00:44:02;16.20;99.90
19665;DHT22;9980;51.020;7.772;2022-10-16T00:46:39;16.20;99.90
19665;DHT22;9980;51.020;7.772;2022-10-16T00:49:14;16.30;99.90
19665;DHT22;9980;51.020;7.772;2022-10-16T00:51:53;16.30;99.90
19665;DHT22;9980;51.020;7.772;2022-10-16T00:54:26;16.30;99.90
19665;DHT22;9980;51.020;7.772;2022-10-16T00:56:59;16.30;99.90
19665;DHT22;9980;51.020;7.772;2022-10-16T00:59:32;16.30;99.90
19665;DHT22;9980;51.020;7.772;2022-10-16T01:02:01;16.30;99.90
19665;DHT22;9980;51.020;7.772;2022-10-16T01:04:34;16.30;99.90
19665;DHT22;9980;51.020;7.772;2022-10-16T01:15:31;16.30;99.90
19665;DHT22;9980;51.020;7.772;2022-10-16T01:21:29;16.40;99.90
19665;DHT22;9980;51.020;7.772;2022-10-16T01:24:26;16.40;99.90
19665;DHT22;9980;51.020;7.772;2022-10-16T01:32:38;16.40;99.90
19665;DHT22;9980;51.020;7.772;2022-10-16T01:35:26;16.40;99.90
19665;DHT22;9980;51.020;7.772;2022-10-16T01:38:17;16.40;99.90
19665;DHT22;9980;51.020;7.772;2022-10-16T01:40:52;16.40;99.90
19665;DHT22;9980;51.020;7.772;2022-10-16T01:43:33;16.40;99.90
19665;DHT22;9980;51.020;7.772;2022-10-16T01:46:08;16.40;99.90
19665;DHT22;9980;51.020;7.772;2022-10-16T01:48:37;16.40;99.90
19665;DHT22;9980;51.020;7.772;2022-10-16T01:51:11;16.40;99.90
19665;DHT22;9980;51.020;7.772;2022-10-16T01:53:40;16.40;99.90
19665;DHT22;9980;51.020;7.772;2022-10-16T01:56:13;16.30;99.90
19665;DHT22;9980;51.020;7.772;2022-10-16T01:58:47;16.40;99.90
19665;DHT22;9980;51.020;7.772;2022-10-16T02:01:22;16.40;99.90
19665;DHT22;9980;51.020;7.772;2022-10-16T02:03:54;16.30;99.90
19665;DHT22;9980;51.020;7.772;2022-10-16T02:06:24;16.30;99.90
19665;DHT22;9980;51.020;7.772;2022-10-16T02:08:51;16.30;99.90
19665;DHT22;9980;51.020;7.772;2022-10-16T02:11:18;16.30;99.90
19665;DHT22;9980;51.020;7.772;2022-10-16T02:13:50;16.20;99.90
19665;DHT22;9980;51.020;7.772;2022-10-16T02:16:20;16.20;99.90
19665;DHT22;9980;51.020;7.772;2022-10-16T02:18:47;16.20;99.90
19665;DHT22;9980;51.020;7.772;2022-10-16T02:21:29;16.20;99.90
19665;DHT22;9980;51.020;7.772;2022-10-16T02:27:20;16.10;99.90
19665;DHT22;9980;51.020;7.772;2022-10-16T02:32:47;16.00;99.90
19665;DHT22;9980;51.020;7.772;2022-10-16T02:35:18;16.00;99.90
19665;DHT22;9980;51.020;7.772;2022-10-16T02:37:49;15.90;99.90
19665;DHT22;9980;51.020;7.772;2022-10-16T02:40:17;15.90;99.90
19665;DHT22;9980;51.020;7.772;2022-10-16T02:42:52;15.80;99.90
19665;DHT22;9980;51.020;7.772;2022-10-16T02:45:21;15.80;99.90
19665;DHT22;9980;51.020;7.772;2022-10-16T02:47:48;15.70;99.90
19665;DHT22;9980;51.020;7.772;2022-10-16T02:50:15;15.70;99.90
19665;DHT22;9980;51.020;7.772;2022-10-16T02:52:43;15.70;99.90
19665;DHT22;9980;51.020;7.772;2022-10-16T02:55:10;15.60;99.90
19665;DHT22;9980;51.020;7.772;2022-10-16T02:57:37;15.60;99.90
19665;DHT22;9980;51.020;7.772;2022-10-16T03:00:05;15.50;99.90
19665;DHT22;9980;51.020;7.772;2022-10-16T03:02:32;15.50;99.90
19665;DHT22;9980;51.020;7.772;2022-10-16T03:04:59;15.50;99.90
19665;DHT22;9980;51.020;7.772;2022-10-16T03:07:26;15.40;99.90
19665;DHT22;9980;51.020;7.772;2022-10-16T03:09:53;15.40;99.90
19665;DHT22;9980;51.020;7.772;2022-10-16T03:12:22;15.40;99.90
19665;DHT22;9980;51.020;7.772;2022-10-16T03:14:48;15.40;99.90
19665;DHT22;9980;51.020;7.772;2022-10-16T03:17:15;15.40;99.90
19665;DHT22;9980;51.020;7.772;2022-10-16T03:19:43;15.40;99.90
19665;DHT22;9980;51.020;7.772;2022-10-16T03:22:10;15.40;99.90
19665;DHT22;9980;51.020;7.772;2022-10-16T03:24:37;15.30;99.90
19665;DHT22;9980;51.020;7.772;2022-10-16T03:27:04;15.40;99.90
19665;DHT22;9980;51.020;7.772;2022-10-16T03:29:32;15.40;99.90
19665;DHT22;9980;51.020;7.772;2022-10-16T03:31:59;15.40;99.90
19665;DHT22;9980;51.020;7.772;2022-10-16T03:34:27;15.40;99.90
19665;DHT22;9980;51.020;7.772;2022-10-16T03:36:54;15.50;99.90
19665;DHT22;9980;51.020;7.772;2022-10-16T03:39:21;15.50;99.90
19665;DHT22;9980;51.020;7.772;2022-10-16T03:41:48;15.50;99.90
19665;DHT22;9980;51.020;7.772;2022-10-16T03:44:15;15.60;99.90
19665;DHT22;9980;51.020;7.772;2022-10-16T03:46:42;15.50;99.90
19665;DHT22;9980;51.020;7.772;2022-10-16T03:49:09;15.60;99.90
19665;DHT22;9980;51.020;7.772;2022-10-16T03:51:36;15.60;99.90
19665;DHT22;9980;51.020;7.772;2022-10-16T03:54:03;15.70;99.90
19665;DHT22;9980;51.020;7.772;2022-10-16T03:56:30;15.60;99.90
19665;DHT22;9980;51.020;7.772;2022-10-16T03:58:57;15.70;99.90
19665;DHT22;9980;51.020;7.772;2022-10-16T04:01:24;15.70;99.90
19665;DHT22;9980;51.020;7.772;2022-10-16T04:03:51;15.70;99.90
19665;DHT22;9980;51.020;7.772;2022-10-16T04:06:18;15.80;99.90
19665;DHT22;9980;51.020;7.772;2022-10-16T04:08:45;15.80;99.90
19665;DHT22;9980;51.020;7.772;2022-10-16T04:11:12;15.80;99.90
19665;DHT22;9980;51.020;7.772;2022-10-16T04:13:39;15.80;99.90
19665;DHT22;9980;51.020;7.772;2022-10-16T04:16:06;15.80;99.90
19665;DHT22;9980;51.020;7.772;2022-10-16T04:18:33;15.90;99.90
19665;DHT22;9980;51.020;7.772;2022-10-16T04:21:03;15.90;99.90
19665;DHT22;9980;51.020;7.772;2022-10-16T04:23:31;15.90;99.90
19665;DHT22;9980;51.020;7.772;2022-10-16T04:26:00;15.90;99.90
19665;DHT22;9980;51.020;7.772;2022-10-16T04:28:27;15.90;99.90
19665;DHT22;9980;51.020;7.772;2022-10-16T04:30:54;16.00;99.90
19665;DHT22;9980;51.020;7.772;2022-10-16T04:33:21;16.00;99.90
19665;DHT22;9980;51.020;7.772;2022-10-16T04:35:48;16.00;99.90
19665;DHT22;9980;51.020;7.772;2022-10-16T04:38:15;16.00;99.90
19665;DHT22;9980;51.020;7.772;2022-10-16T04:40:42;16.00;99.90
19665;DHT22;9980;51.020;7.772;2022-10-16T04:43:09;16.00;99.90
19665;DHT22;9980;51.020;7.772;2022-10-16T04:45:37;16.00;99.90
19665;DHT22;9980;51.020;7.772;2022-10-16T04:48:04;16.10;99.90
19665;DHT22;9980;51.020;7.772;2022-10-16T04:50:30;16.10;99.90
19665;DHT22;9980;51.020;7.772;2022-10-16T04:53:04;16.10;99.90
19665;DHT22;9980;51.020;7.772;2022-10-16T04:55:32;16.10;99.90
19665;DHT22;9980;51.020;7.772;2022-10-16T04:57:58;16.10;99.90
19665;DHT22;9980;51.020;7.772;2022-10-16T05:00:26;16.10;99.90
19665;DHT22;9980;51.020;7.772;2022-10-16T05:02:53;16.10;99.90
19665;DHT22;9980;51.020;7.772;2022-10-16T05:05:20;16.10;99.90
19665;DHT22;9980;51.020;7.772;2022-10-16T05:07:47;16.10;99.90
19665;DHT22;9980;51.020;7.772;2022-10-16T05:10:16;16.10;99.90
19665;DHT22;9980;51.020;7.772;2022-10-16T05:12:43;16.10;99.90
19665;DHT22;9980;51.020;7.772;2022-10-16T05:15:10;16.10;99.90
19665;DHT22;9980;51.020;7.772;2022-10-16T05:17:37;16.10;99.90
19665;DHT22;9980;51.020;7.772;2022-10-16T05:20:11;16.10;99.90
19665;DHT22;9980;51.020;7.772;2022-10-16T05:22:38;16.10;99.90
19665;DHT22;9980;51.020;7.772;2022-10-16T05:25:05;16.10;99.90
19665;DHT22;9980;51.020;7.772;2022-10-16T05:27:33;16.20;99.90
19665;DHT22;9980;51.020;7.772;2022-10-16T05:29:59;16.20;99.90
19665;DHT22;9980;51.020;7.772;2022-10-16T05:32:26;16.20;99.90
19665;DHT22;9980;51.020;7.772;2022-10-16T05:34:53;16.20;99.90
19665;DHT22;9980;51.020;7.772;2022-10-16T05:37:20;16.20;99.90
19665;DHT22;9980;51.020;7.772;2022-10-16T05:39:47;16.20;99.90
19665;DHT22;9980;51.020;7.772;2022-10-16T05:42:14;16.30;99.90
19665;DHT22;9980;51.020;7.772;2022-10-16T05:44:41;16.30;99.90
19665;DHT22;9980;51.020;7.772;2022-10-16T05:47:08;16.30;99.90
19665;DHT22;9980;51.020;7.772;2022-10-16T05:49:37;16.30;99.90
19665;DHT22;9980;51.020;7.772;2022-10-16T05:52:07;16.30;99.90
19665;DHT22;9980;51.020;7.772;2022-10-16T05:54:34;16.30;99.90
19665;DHT22;9980;51.020;7.772;2022-10-16T05:57:01;16.30;99.90
19665;DHT22;9980;51.020;7.772;2022-10-16T05:59:28;16.30;99.90
19665;DHT22;9980;51.020;7.772;2022-10-16T06:01:55;16.30;99.90
19665;DHT22;9980;51.020;7.772;2022-10-16T06:04:22;16.40;99.90
19665;DHT22;9980;51.020;7.772;2022-10-16T06:06:49;16.40;99.90
19665;DHT22;9980;51.020;7.772;2022-10-16T06:09:16;16.40;99.90
19665;DHT22;9980;51.020;7.772;2022-10-16T06:11:42;16.40;99.90
19665;DHT22;9980;51.020;7.772;2022-10-16T06:14:09;16.40;99.90
19665;DHT22;9980;51.020;7.772;2022-10-16T06:16:37;16.40;99.90
19665;DHT22;9980;51.020;7.772;2022-10-16T06:19:04;16.50;99.90
19665;DHT22;9980;51.020;7.772;2022-10-16T06:21:34;16.50;99.90
19665;DHT22;9980;51.020;7.772;2022-10-16T06:24:01;16.50;99.90
19665;DHT22;9980;51.020;7.772;2022-10-16T06:26:30;16.50;99.90
19665;DHT22;9980;51.020;7.772;2022-10-16T06:28:59;16.50;99.90
19665;DHT22;9980;51.020;7.772;2022-10-16T06:31:27;16.60;99.90
19665;DHT22;9980;51.020;7.772;2022-10-16T06:33:58;16.60;99.90
19665;DHT22;9980;51.020;7.772;2022-10-16T06:36:26;16.60;99.90
19665;DHT22;9980;51.020;7.772;2022-10-16T06:38:54;16.60;99.90
19665;DHT22;9980;51.020;7.772;2022-10-16T06:41:22;16.60;99.90
19665;DHT22;9980;51.020;7.772;2022-10-16T06:43:50;16.70;99.90
19665;DHT22;9980;51.020;7.772;2022-10-16T06:46:19;16.70;99.90
19665;DHT22;9980;51.020;7.772;2022-10-16T06:48:48;16.70;99.90
19665;DHT22;9980;51.020;7.772;2022-10-16T06:51:23;16.70;99.90
19665;DHT22;9980;51.020;7.772;2022-10-16T06:53:53;16.70;99.90
19665;DHT22;9980;51.020;7.772;2022-10-16T06:56:31;16.70;99.90
19665;DHT22;9980;51.020;7.772;2022-10-16T06:58:59;16.80;99.90
19665;DHT22;9980;51.020;7.772;2022-10-16T07:01:27;16.80;99.90
19665;DHT22;9980;51.020;7.772;2022-10-16T07:03:55;16.80;99.90
19665;DHT22;9980;51.020;7.772;2022-10-16T07:06:24;16.80;99.90
19665;DHT22;9980;51.020;7.772;2022-10-16T07:08:52;16.80;99.90
19665;DHT22;9980;51.020;7.772;2022-10-16T07:11:23;16.80;99.90
19665;DHT22;9980;51.020;7.772;2022-10-16T07:13:51;16.80;99.90
19665;DHT22;9980;51.020;7.772;2022-10-16T07:16:27;16.80;99.90
19665;DHT22;9980;51.020;7.772;2022-10-16T07:18:57;16.90;99.90
19665;DHT22;9980;51.020;7.772;2022-10-16T07:21:32;16.90;99.90
19665;DHT22;9980;51.020;7.772;2022-10-16T07:24:06;16.90;99.90
19665;DHT22;9980;51.020;7.772;2022-10-16T07:26:37;16.90;99.90
19665;DHT22;9980;51.020;7.772;2022-10-16T07:29:14;17.00;99.90
19665;DHT22;9980;51.020;7.772;2022-10-16T07:31:43;17.00;99.90
19665;DHT22;9980;51.020;7.772;2022-10-16T07:34:12;17.10;99.90
19665;DHT22;9980;51.020;7.772;2022-10-16T07:36:41;17.10;99.90
19665;DHT22;9980;51.020;7.772;2022-10-16T07:39:08;17.10;99.90
19665;DHT22;9980;51.020;7.772;2022-10-16T07:41:35;17.20;99.90
19665;DHT22;9980;51.020;7.772;2022-10-16T07:44:03;17.20;99.90
19665;DHT22;9980;51.020;7.772;2022-10-16T07:46:30;17.20;99.90
19665;DHT22;9980;51.020;7.772;2022-10-16T07:48:59;17.30;99.90
19665;DHT22;9980;51.020;7.772;2022-10-16T07:51:26;17.30;99.90
19665;DHT22;9980;51.020;7.772;2022-10-16T07:53:54;17.30;99.90
19665;DHT22;9980;51.020;7.772;2022-10-16T07:56:21;17.40;99.90
19665;DHT22;9980;51.020;7.772;2022-10-16T07:58:50;17.40;99.90
19665;DHT22;9980;51.020;7.772;2022-10-16T08:01:18;17.40;99.90
19665;DHT22;9980;51.020;7.772;2022-10-16T08:03:50;17.50;99.90
19665;DHT22;9980;51.020;7.772;2022-10-16T08:06:19;17.50;99.90
19665;DHT22;9980;51.020;7.772;2022-10-16T08:08:54;17.60;99.90
19665;DHT22;9980;51.020;7.772;2022-10-16T08:11:22;17.70;99.90
19665;DHT22;9980;51.020;7.772;2022-10-16T08:13:49;17.70;99.90
19665;DHT22;9980;51.020;7.772;2022-10-16T08:16:16;17.80;99.90
19665;DHT22;9980;51.020;7.772;2022-10-16T08:18:44;17.80;99.90
19665;DHT22;9980;51.020;7.772;2022-10-16T08:21:16;17.80;99.90
19665;DHT22;9980;51.020;7.772;2022-10-16T08:23:48;17.80;99.90
19665;DHT22;9980;51.020;7.772;2022-10-16T08:26:24;17.80;99.90
19665;DHT22;9980;51.020;7.772;2022-10-16T08:28:52;17.80;99.90
19665;DHT22;9980;51.020;7.772;2022-10-16T08:31:20;17.80;99.90
19665;DHT22;9980;51.020;7.772;2022-10-16T08:33:48;17.80;99.90
19665;DHT22;9980;51.020;7.772;2022-10-16T08:36:16;17.80;99.90
19665;DHT22;9980;51.020;7.772;2022-10-16T08:38:47;17.80;99.90
19665;DHT22;9980;51.020;7.772;2022-10-16T08:41:36;17.80;99.90
19665;DHT22;9980;51.020;7.772;2022-10-16T08:44:29;17.80;99.90
19665;DHT22;9980;51.020;7.772;2022-10-16T08:47:21;17.80;99.90
19665;DHT22;9980;51.020;7.772;2022-10-16T08:50:00;17.80;99.90
19665;DHT22;9980;51.020;7.772;2022-10-16T08:52:39;17.80;99.90
19665;DHT22;9980;51.020;7.772;2022-10-16T08:55:38;17.90;99.90
19665;DHT22;9980;51.020;7.772;2022-10-16T08:58:16;17.90;99.90
19665;DHT22;9980;51.020;7.772;2022-10-16T09:00:47;18.00;99.90
19665;DHT22;9980;51.020;7.772;2022-10-16T09:06:46;18.20;99.90
19665;DHT22;9980;51.020;7.772;2022-10-16T09:12:23;18.40;99.90
19665;DHT22;9980;51.020;7.772;2022-10-16T09:18:12;18.60;99.90
19665;DHT22;9980;51.020;7.772;2022-10-16T09:21:25;18.70;99.90
19665;DHT22;9980;51.020;7.772;2022-10-16T09:23:58;18.70;99.90
19665;DHT22;9980;51.020;7.772;2022-10-16T09:26:31;18.80;99.90
19665;DHT22;9980;51.020;7.772;2022-10-16T09:28:58;18.90;99.90
19665;DHT22;9980;51.020;7.772;2022-10-16T09:31:25;18.90;99.90
19665;DHT22;9980;51.020;7.772;2022-10-16T09:33:58;19.00;99.90
19665;DHT22;9980;51.020;7.772;2022-10-16T09:36:38;19.00;99.90
19665;DHT22;9980;51.020;7.772;2022-10-16T09:39:10;19.10;99.90
19665;DHT22;9980;51.020;7.772;2022-10-16T09:41:43;19.20;99.90
19665;DHT22;9980;51.020;7.772;2022-10-16T09:44:24;19.30;99.90
19665;DHT22;9980;51.020;7.772;2022-10-16T09:47:18;19.30;99.90
19665;DHT22;9980;51.020;7.772;2022-10-16T09:50:24;19.40;99.90
19665;DHT22;9980;51.020;7.772;2022-10-16T09:53:13;19.50;99.90
19665;DHT22;9980;51.020;7.772;2022-10-16T09:55:52;19.50;99.50
19665;DHT22;9980;51.020;7.772;2022-10-16T09:58:23;19.50;99.50
19665;DHT22;9980;51.020;7.772;2022-10-16T10:00:53;19.50;99.70
19665;DHT22;9980;51.020;7.772;2022-10-16T10:03:42;19.60;99.90
19665;DHT22;9980;51.020;7.772;2022-10-16T10:06:23;19.70;99.90
19665;DHT22;9980;51.020;7.772;2022-10-16T10:09:04;19.70;99.70
19665;DHT22;9980;51.020;7.772;2022-10-16T10:11:45;19.80;99.70
19665;DHT22;9980;51.020;7.772;2022-10-16T10:14:46;19.90;99.50
19665;DHT22;9980;51.020;7.772;2022-10-16T10:17:20;19.90;99.40
19665;DHT22;9980;51.020;7.772;2022-10-16T10:20:21;20.00;99.00
19665;DHT22;9980;51.020;7.772;2022-10-16T10:23:13;20.00;99.10
19665;DHT22;9980;51.020;7.772;2022-10-16T10:26:11;20.00;98.60
19665;DHT22;9980;51.020;7.772;2022-10-16T10:37:40;20.20;97.60
19665;DHT22;9980;51.020;7.772;2022-10-16T10:40:40;20.30;98.20
19665;DHT22;9980;51.020;7.772;2022-10-16T10:46:48;20.40;97.60
19665;DHT22;9980;51.020;7.772;2022-10-16T10:55:40;20.70;97.80
19665;DHT22;9980;51.020;7.772;2022-10-16T11:01:13;20.90;96.70
19665;DHT22;9980;51.020;7.772;2022-10-16T11:07:02;21.00;97.20
19665;DHT22;9980;51.020;7.772;2022-10-16T11:09:36;21.00;96.70
19665;DHT22;9980;51.020;7.772;2022-10-16T11:12:14;21.10;96.70
19665;DHT22;9980;51.020;7.772;2022-10-16T11:15:21;21.10;96.80
19665;DHT22;9980;51.020;7.772;2022-10-16T11:18:13;21.20;97.00
19665;DHT22;9980;51.020;7.772;2022-10-16T11:20:50;21.20;97.00
19665;DHT22;9980;51.020;7.772;2022-10-16T11:23:44;21.30;96.70
19665;DHT22;9980;51.020;7.772;2022-10-16T11:26:28;21.40;97.00
19665;DHT22;9980;51.020;7.772;2022-10-16T11:29:02;21.50;96.90
19665;DHT22;9980;51.020;7.772;2022-10-16T11:31:41;21.50;96.80
19665;DHT22;9980;51.020;7.772;2022-10-16T11:34:38;21.60;96.80
19665;DHT22;9980;51.020;7.772;2022-10-16T11:37:19;21.60;96.20
19665;DHT22;9980;51.020;7.772;2022-10-16T11:39:52;21.70;96.00
19665;DHT22;9980;51.020;7.772;2022-10-16T11:42:32;21.70;95.50
19665;DHT22;9980;51.020;7.772;2022-10-16T11:51:06;21.90;95.10
19665;DHT22;9980;51.020;7.772;2022-10-16T11:56:39;21.90;94.80
19665;DHT22;9980;51.020;7.772;2022-10-16T12:01:48;21.90;94.50
19665;DHT22;9980;51.020;7.772;2022-10-16T12:04:34;21.90;94.80
19665;DHT22;9980;51.020;7.772;2022-10-16T12:07:15;21.90;94.70
19665;DHT22;9980;51.020;7.772;2022-10-16T12:09:48;22.00;94.90
19665;DHT22;9980;51.020;7.772;2022-10-16T12:12:25;22.00;94.70
19665;DHT22;9980;51.020;7.772;2022-10-16T12:17:53;22.20;94.30
19665;DHT22;9980;51.020;7.772;2022-10-16T12:20:25;22.20;94.40
19665;DHT22;9980;51.020;7.772;2022-10-16T12:23:05;22.30;94.20
19665;DHT22;9980;51.020;7.772;2022-10-16T12:25:37;22.30;93.40
19665;DHT22;9980;51.020;7.772;2022-10-16T12:28:20;22.30;93.60
19665;DHT22;9980;51.020;7.772;2022-10-16T12:31:00;22.20;93.40
19665;DHT22;9980;51.020;7.772;2022-10-16T12:33:30;22.20;93.10
19665;DHT22;9980;51.020;7.772;2022-10-16T12:36:03;22.20;93.70
19665;DHT22;9980;51.020;7.772;2022-10-16T12:41:35;22.10;93.80
19665;DHT22;9980;51.020;7.772;2022-10-16T12:44:24;22.10;93.30
19665;DHT22;9980;51.020;7.772;2022-10-16T12:46:54;22.10;93.50
19665;DHT22;9980;51.020;7.772;2022-10-16T12:49:36;22.10;93.80
19665;DHT22;9980;51.020;7.772;2022-10-16T12:52:04;22.10;93.70
19665;DHT22;9980;51.020;7.772;2022-10-16T12:54:56;22.10;93.40
19665;DHT22;9980;51.020;7.772;2022-10-16T12:57:39;22.10;93.40
19665;DHT22;9980;51.020;7.772;2022-10-16T13:05:55;22.10;93.60
19665;DHT22;9980;51.020;7.772;2022-10-16T13:26:05;22.10;93.00
19665;DHT22;9980;51.020;7.772;2022-10-16T13:28:43;22.00;93.80
19665;DHT22;9980;51.020;7.772;2022-10-16T13:31:17;22.10;93.30
19665;DHT22;9980;51.020;7.772;2022-10-16T13:33:50;22.10;93.30
19665;DHT22;9980;51.020;7.772;2022-10-16T13:36:23;22.10;93.20
19665;DHT22;9980;51.020;7.772;2022-10-16T13:39:15;22.10;93.10
19665;DHT22;9980;51.020;7.772;2022-10-16T13:42:04;22.10;93.00
19665;DHT22;9980;51.020;7.772;2022-10-16T13:44:51;22.10;93.10
19665;DHT22;9980;51.020;7.772;2022-10-16T13:47:24;22.10;93.50
19665;DHT22;9980;51.020;7.772;2022-10-16T13:52:35;22.00;93.20
19665;DHT22;9980;51.020;7.772;2022-10-16T13:55:11;22.10;93.30
19665;DHT22;9980;51.020;7.772;2022-10-16T13:57:40;22.00;93.00
19665;DHT22;9980;51.020;7.772;2022-10-16T14:00:23;22.00;93.20
19665;DHT22;9980;51.020;7.772;2022-10-16T14:03:11;21.90;93.20
19665;DHT22;9980;51.020;7.772;2022-10-16T14:05:50;21.90;93.80
19665;DHT22;9980;51.020;7.772;2022-10-16T14:08:20;21.90;93.40
19665;DHT22;9980;51.020;7.772;2022-10-16T14:10:53;21.80;93.80
19665;DHT22;9980;51.020;7.772;2022-10-16T14:13:36;21.80;93.80
19665;DHT22;9980;51.020;7.772;2022-10-16T14:16:11;21.70;93.40
19665;DHT22;9980;51.020;7.772;2022-10-16T14:19:02;21.70;93.50
19665;DHT22;9980;51.020;7.772;2022-10-16T14:21:37;21.70;93.80
19665;DHT22;9980;51.020;7.772;2022-10-16T14:26:57;21.70;94.10
19665;DHT22;9980;51.020;7.772;2022-10-16T14:29:26;21.60;93.90
19665;DHT22;9980;51.020;7.772;2022-10-16T14:32:05;21.60;94.00
19665;DHT22;9980;51.020;7.772;2022-10-16T14:34:35;21.60;93.70
19665;DHT22;9980;51.020;7.772;2022-10-16T14:37:22;21.60;93.90
19665;DHT22;9980;51.020;7.772;2022-10-16T14:39:54;21.60;94.10
19665;DHT22;9980;51.020;7.772;2022-10-16T14:42:24;21.60;94.30
19665;DHT22;9980;51.020;7.772;2022-10-16T14:44:53;21.60;94.20
19665;DHT22;9980;51.020;7.772;2022-10-16T14:47:24;21.50;94.30
19665;DHT22;9980;51.020;7.772;2022-10-16T14:49:54;21.60;94.60
19665;DHT22;9980;51.020;7.772;2022-10-16T14:52:22;21.50;94.50
19665;DHT22;9980;51.020;7.772;2022-10-16T14:54:50;21.60;94.50
19665;DHT22;9980;51.020;7.772;2022-10-16T14:57:23;21.50;94.40
19665;DHT22;9980;51.020;7.772;2022-10-16T14:59:54;21.50;94.50
19665;DHT22;9980;51.020;7.772;2022-10-16T15:04:49;21.50;94.50
19665;DHT22;9980;51.020;7.772;2022-10-16T15:07:16;21.50;94.60
19665;DHT22;9980;51.020;7.772;2022-10-16T15:09:43;21.40;94.60
19665;DHT22;9980;51.020;7.772;2022-10-16T15:12:15;21.40;94.60
19665;DHT22;9980;51.020;7.772;2022-10-16T15:14:43;21.40;94.60
19665;DHT22;9980;51.020;7.772;2022-10-16T15:17:10;21.40;94.60
19665;DHT22;9980;51.020;7.772;2022-10-16T15:19:38;21.40;94.70
19665;DHT22;9980;51.020;7.772;2022-10-16T15:22:05;21.40;94.60
19665;DHT22;9980;51.020;7.772;2022-10-16T15:24:32;21.40;94.80
19665;DHT22;9980;51.020;7.772;2022-10-16T15:26:59;21.40;94.70
19665;DHT22;9980;51.020;7.772;2022-10-16T15:29:26;21.40;94.80
19665;DHT22;9980;51.020;7.772;2022-10-16T15:31:53;21.40;94.90
19665;DHT22;9980;51.020;7.772;2022-10-16T15:34:20;21.40;94.80
19665;DHT22;9980;51.020;7.772;2022-10-16T15:36:47;21.40;94.80
19665;DHT22;9980;51.020;7.772;2022-10-16T15:39:17;21.30;94.80
19665;DHT22;9980;51.020;7.772;2022-10-16T15:41:47;21.30;94.70
19665;DHT22;9980;51.020;7.772;2022-10-16T15:44:17;21.30;94.80
19665;DHT22;9980;51.020;7.772;2022-10-16T15:46:44;21.20;95.00
19665;DHT22;9980;51.020;7.772;2022-10-16T15:49:12;21.20;95.30
19665;DHT22;9980;51.020;7.772;2022-10-16T15:51:41;21.10;95.50
19665;DHT22;9980;51.020;7.772;2022-10-16T15:54:09;21.10;95.60
19665;DHT22;9980;51.020;7.772;2022-10-16T15:56:35;21.10;95.70
19665;DHT22;9980;51.020;7.772;2022-10-16T15:59:04;21.00;95.80
19665;DHT22;9980;51.020;7.772;2022-10-16T16:01:35;21.00;95.90
19665;DHT22;9980;51.020;7.772;2022-10-16T16:04:03;20.90;96.00
19665;DHT22;9980;51.020;7.772;2022-10-16T16:06:41;20.80;96.00
19665;DHT22;9980;51.020;7.772;2022-10-16T16:09:12;20.80;96.20
19665;DHT22;9980;51.020;7.772;2022-10-16T16:11:40;20.70;96.30
19665;DHT22;9980;51.020;7.772;2022-10-16T16:14:11;20.60;96.30
19665;DHT22;9980;51.020;7.772;2022-10-16T16:16:39;20.60;96.40
19665;DHT22;9980;51.020;7.772;2022-10-16T16:19:08;20.50;96.50
19665;DHT22;9980;51.020;7.772;2022-10-16T16:21:38;20.50;96.50
19665;DHT22;9980;51.020;7.772;2022-10-16T16:24:05;20.40;96.60
19665;DHT22;9980;51.020;7.772;2022-10-16T16:26:35;20.30;96.70
19665;DHT22;9980;51.020;7.772;2022-10-16T16:29:06;20.30;96.80
19665;DHT22;9980;51.020;7.772;2022-10-16T16:31:33;20.20;96.80
19665;DHT22;9980;51.020;7.772;2022-10-16T16:34:01;20.20;96.90
19665;DHT22;9980;51.020;7.772;2022-10-16T16:36:28;20.10;96.90
19665;DHT22;9980;51.020;7.772;2022-10-16T16:38:56;20.00;97.00
19665;DHT22;9980;51.020;7.772;2022-10-16T16:41:26;20.00;97.00
19665;DHT22;9980;51.020;7.772;2022-10-16T16:43:55;19.90;97.10
19665;DHT22;9980;51.020;7.772;2022-10-16T16:46:27;19.90;97.20
19665;DHT22;9980;51.020;7.772;2022-10-16T16:48:54;19.90;97.30
19665;DHT22;9980;51.020;7.772;2022-10-16T16:51:22;19.80;97.30
19665;DHT22;9980;51.020;7.772;2022-10-16T16:53:51;19.80;97.50
19665;DHT22;9980;51.020;7.772;2022-10-16T16:56:20;19.70;97.40
19665;DHT22;9980;51.020;7.772;2022-10-16T16:58:50;19.70;97.50
19665;DHT22;9980;51.020;7.772;2022-10-16T17:01:18;19.60;97.60
19665;DHT22;9980;51.020;7.772;2022-10-16T17:03:49;19.60;97.60
19665;DHT22;9980;51.020;7.772;2022-10-16T17:06:24;19.50;97.60
19665;DHT22;9980;51.020;7.772;2022-10-16T17:08:54;19.50;97.80
19665;DHT22;9980;51.020;7.772;2022-10-16T17:11:24;19.40;97.80
19665;DHT22;9980;51.020;7.772;2022-10-16T17:13:54;19.40;97.90
19665;DHT22;9980;51.020;7.772;2022-10-16T17:16:33;19.40;97.90
19665;DHT22;9980;51.020;7.772;2022-10-16T17:19:04;19.30;98.00
19665;DHT22;9980;51.020;7.772;2022-10-16T17:21:36;19.30;98.10
19665;DHT22;9980;51.020;7.772;2022-10-16T17:24:04;19.20;98.10
19665;DHT22;9980;51.020;7.772;2022-10-16T17:26:32;19.20;98.20
19665;DHT22;9980;51.020;7.772;2022-10-16T17:29:04;19.20;98.20
19665;DHT22;9980;51.020;7.772;2022-10-16T17:31:35;19.10;98.30
19665;DHT22;9980;51.020;7.772;2022-10-16T17:34:05;19.10;98.40
19665;DHT22;9980;51.020;7.772;2022-10-16T17:36:35;19.10;98.40
19665;DHT22;9980;51.020;7.772;2022-10-16T17:39:09;19.00;98.40
19665;DHT22;9980;51.020;7.772;2022-10-16T17:41:38;19.00;98.50
19665;DHT22;9980;51.020;7.772;2022-10-16T17:44:05;19.00;98.60
19665;DHT22;9980;51.020;7.772;2022-10-16T17:46:34;19.00;98.60
19665;DHT22;9980;51.020;7.772;2022-10-16T17:49:06;19.00;98.70
19665;DHT22;9980;51.020;7.772;2022-10-16T17:51:35;19.00;98.70
19665;DHT22;9980;51.020;7.772;2022-10-16T17:54:02;19.00;98.80
19665;DHT22;9980;51.020;7.772;2022-10-16T17:56:29;18.90;98.80
19665;DHT22;9980;51.020;7.772;2022-10-16T17:58:58;18.90;98.90
19665;DHT22;9980;51.020;7.772;2022-10-16T18:01:30;18.90;99.00
19665;DHT22;9980;51.020;7.772;2022-10-16T18:04:05;18.80;99.00